sensor_id;sensor_type;location;lat;lon;timestamp;temperature;humidity
59923;DHT22;45778;51.142;3.732;2024-03-25T00:00:13;3.70;99.90
59923;DHT22;45778;51.142;3.732;2024-03-25T00:02:40;3.60;99.90
59923;DHT22;45778;51.142;3.732;2024-03-25T00:05:07;3.70;99.90
59923;DHT22;45778;51.142;3.732;2024-03-25T00:07:35;3.70;99.90
59923;DHT22;45778;51.142;3.732;2024-03-25T00:10:02;3.70;99.90
59923;DHT22;45778;51.142;3.732;2024-03-25T00:12:28;3.70;99.90
59923;DHT22;45778;51.142;3.732;2024-03-25T00:14:54;3.60;99.90
59923;DHT22;45778;51.142;3.732;2024-03-25T00:17:19;3.60;99.90
59923;DHT22;45778;51.142;3.732;2024-03-25T00:19:46;3.60;99.90
59923;DHT22;45778;51.142;3.732;2024-03-25T00:22:16;3.60;99.90
59923;DHT22;45778;51.142;3.732;2024-03-25T00:24:42;3.50;99.90
59923;DHT22;45778;51.142;3.732;2024-03-25T00:27:08;3.50;99.90
59923;DHT22;45778;51.142;3.732;2024-03-25T00:29:33;3.50;99.90
59923;DHT22;45778;51.142;3.732;2024-03-25T00:31:59;3.50;99.90
59923;DHT22;45778;51.142;3.732;2024-03-25T00:34:24;3.40;99.90
59923;DHT22;45778;51.142;3.732;2024-03-25T00:36:50;3.50;99.90
59923;DHT22;45778;51.142;3.732;2024-03-25T00:39:16;3.40;99.90
59923;DHT22;45778;51.142;3.732;2024-03-25T00:41:42;3.50;99.90
59923;DHT22;45778;51.142;3.732;2024-03-25T00:44:08;3.50;99.90
59923;DHT22;45778;51.142;3.732;2024-03-25T00:46:34;3.50;99.90
59923;DHT22;45778;51.142;3.732;2024-03-25T00:48:59;3.40;99.90
59923;DHT22;45778;51.142;3.732;2024-03-25T00:51:25;3.40;99.90
59923;DHT22;45778;51.142;3.732;2024-03-25T00:53:50;3.30;99.90
59923;DHT22;45778;51.142;3.732;2024-03-25T00:56:16;3.30;99.90
59923;DHT22;45778;51.142;3.732;2024-03-25T00:58:42;3.30;99.90
59923;DHT22;45778;51.142;3.732;2024-03-25T01:01:07;3.20;99.90
59923;DHT22;45778;51.142;3.732;2024-03-25T01:03:33;3.30;99.90
59923;DHT22;45778;51.142;3.732;2024-03-25T01:05:59;3.20;99.90
59923;DHT22;45778;51.142;3.732;2024-03-25T01:08:25;3.20;99.90
59923;DHT22;45778;51.142;3.732;2024-03-25T01:10:50;3.30;99.90
59923;DHT22;45778;51.142;3.732;2024-03-25T01:13:16;3.20;99.90
59923;DHT22;45778;51.142;3.732;2024-03-25T01:15:41;3.20;99.90
59923;DHT22;45778;51.142;3.732;2024-03-25T01:18:07;3.20;99.90
59923;DHT22;45778;51.142;3.732;2024-03-25T01:20:33;3.40;99.90
59923;DHT22;45778;51.142;3.732;2024-03-25T01:22:59;3.20;99.90
59923;DHT22;45778;51.142;3.732;2024-03-25T01:25:25;3.20;99.90
59923;DHT22;45778;51.142;3.732;2024-03-25T01:27:51;3.10;99.90
59923;DHT22;45778;51.142;3.732;2024-03-25T01:30:17;3.30;99.90
59923;DHT22;45778;51.142;3.732;2024-03-25T01:32:44;3.20;99.90
59923;DHT22;45778;51.142;3.732;2024-03-25T01:35:12;3.30;99.90
59923;DHT22;45778;51.142;3.732;2024-03-25T01:37:37;3.30;99.90
59923;DHT22;45778;51.142;3.732;2024-03-25T01:40:04;3.40;99.90
59923;DHT22;45778;51.142;3.732;2024-03-25T01:42:30;3.40;99.90
59923;DHT22;45778;51.142;3.732;2024-03-25T01:44:56;3.60;99.90
59923;DHT22;45778;51.142;3.732;2024-03-25T01:47:21;3.50;99.90
59923;DHT22;45778;51.142;3.732;2024-03-25T01:49:47;3.60;99.90
59923;DHT22;45778;51.142;3.732;2024-03-25T01:52:15;3.60;99.90
59923;DHT22;45778;51.142;3.732;2024-03-25T01:54:41;3.70;99.90
59923;DHT22;45778;51.142;3.732;2024-03-25T01:57:07;3.70;99.90
59923;DHT22;45778;51.142;3.732;2024-03-25T01:59:34;3.80;99.90
59923;DHT22;45778;51.142;3.732;2024-03-25T02:02:00;3.90;99.90
59923;DHT22;45778;51.142;3.732;2024-03-25T02:04:26;4.00;99.90
59923;DHT22;45778;51.142;3.732;2024-03-25T02:06:52;4.00;99.90
59923;DHT22;45778;51.142;3.732;2024-03-25T02:09:22;4.00;99.90
59923;DHT22;45778;51.142;3.732;2024-03-25T02:11:49;4.00;99.90
59923;DHT22;45778;51.142;3.732;2024-03-25T02:14:15;3.90;99.90
59923;DHT22;45778;51.142;3.732;2024-03-25T02:16:41;3.90;99.90
59923;DHT22;45778;51.142;3.732;2024-03-25T02:19:08;3.90;99.90
59923;DHT22;45778;51.142;3.732;2024-03-25T02:21:34;3.80;99.90
59923;DHT22;45778;51.142;3.732;2024-03-25T02:24:00;3.70;99.90
59923;DHT22;45778;51.142;3.732;2024-03-25T02:26:28;3.70;99.90
59923;DHT22;45778;51.142;3.732;2024-03-25T02:28:55;3.60;99.90
59923;DHT22;45778;51.142;3.732;2024-03-25T02:31:20;3.60;99.90
59923;DHT22;45778;51.142;3.732;2024-03-25T02:33:46;3.70;99.90
59923;DHT22;45778;51.142;3.732;2024-03-25T02:36:12;3.60;99.90
59923;DHT22;45778;51.142;3.732;2024-03-25T02:38:37;3.60;99.90
59923;DHT22;45778;51.142;3.732;2024-03-25T02:41:03;3.50;99.90
59923;DHT22;45778;51.142;3.732;2024-03-25T02:43:29;3.50;99.90
59923;DHT22;45778;51.142;3.732;2024-03-25T02:45:55;3.40;99.90
59923;DHT22;45778;51.142;3.732;2024-03-25T02:48:21;3.40;99.90
59923;DHT22;45778;51.142;3.732;2024-03-25T02:50:46;3.40;99.90
59923;DHT22;45778;51.142;3.732;2024-03-25T02:53:12;3.40;99.90
59923;DHT22;45778;51.142;3.732;2024-03-25T02:55:38;3.30;99.90
59923;DHT22;45778;51.142;3.732;2024-03-25T02:58:03;3.30;99.90
59923;DHT22;45778;51.142;3.732;2024-03-25T03:00:29;3.40;99.90
59923;DHT22;45778;51.142;3.732;2024-03-25T03:02:55;3.20;99.90
59923;DHT22;45778;51.142;3.732;2024-03-25T03:05:20;3.30;99.90
59923;DHT22;45778;51.142;3.732;2024-03-25T03:07:46;3.30;99.90
59923;DHT22;45778;51.142;3.732;2024-03-25T03:10:11;3.40;99.90
59923;DHT22;45778;51.142;3.732;2024-03-25T03:12:37;3.40;99.90
59923;DHT22;45778;51.142;3.732;2024-03-25T03:15:03;3.40;99.90
59923;DHT22;45778;51.142;3.732;2024-03-25T03:17:29;3.40;99.90
59923;DHT22;45778;51.142;3.732;2024-03-25T03:19:54;3.40;99.90
59923;DHT22;45778;51.142;3.732;2024-03-25T03:22:20;3.50;99.90
59923;DHT22;45778;51.142;3.732;2024-03-25T03:24:46;3.40;99.90
59923;DHT22;45778;51.142;3.732;2024-03-25T03:27:11;3.50;99.90
59923;DHT22;45778;51.142;3.732;2024-03-25T03:29:37;3.50;99.90
59923;DHT22;45778;51.142;3.732;2024-03-25T03:32:03;3.70;99.90
59923;DHT22;45778;51.142;3.732;2024-03-25T03:34:28;3.70;99.90
59923;DHT22;45778;51.142;3.732;2024-03-25T03:36:54;3.60;99.90
59923;DHT22;45778;51.142;3.732;2024-03-25T03:39:20;3.70;99.90
59923;DHT22;45778;51.142;3.732;2024-03-25T03:41:45;3.90;99.90
59923;DHT22;45778;51.142;3.732;2024-03-25T03:44:11;3.90;99.90
59923;DHT22;45778;51.142;3.732;2024-03-25T03:46:38;4.00;99.90
59923;DHT22;45778;51.142;3.732;2024-03-25T03:49:04;4.10;99.90
59923;DHT22;45778;51.142;3.732;2024-03-25T03:51:29;4.00;99.90
59923;DHT22;45778;51.142;3.732;2024-03-25T03:53:56;4.00;99.90
59923;DHT22;45778;51.142;3.732;2024-03-25T03:56:21;3.90;99.90
59923;DHT22;45778;51.142;3.732;2024-03-25T03:58:47;3.90;99.90
59923;DHT22;45778;51.142;3.732;2024-03-25T04:01:18;3.80;99.90
59923;DHT22;45778;51.142;3.732;2024-03-25T04:03:44;3.80;99.90
59923;DHT22;45778;51.142;3.732;2024-03-25T04:06:11;3.70;99.90
59923;DHT22;45778;51.142;3.732;2024-03-25T04:08:38;3.70;99.90
59923;DHT22;45778;51.142;3.732;2024-03-25T04:11:04;3.50;99.90
59923;DHT22;45778;51.142;3.732;2024-03-25T04:13:34;3.50;99.90
59923;DHT22;45778;51.142;3.732;2024-03-25T04:16:04;3.50;99.90
59923;DHT22;45778;51.142;3.732;2024-03-25T04:18:31;3.50;99.90
59923;DHT22;45778;51.142;3.732;2024-03-25T04:20:57;3.50;99.90
59923;DHT22;45778;51.142;3.732;2024-03-25T04:23:23;3.50;99.90
59923;DHT22;45778;51.142;3.732;2024-03-25T04:25:50;3.60;99.90
59923;DHT22;45778;51.142;3.732;2024-03-25T04:28:16;3.50;99.90
59923;DHT22;45778;51.142;3.732;2024-03-25T04:30:41;3.50;99.90
59923;DHT22;45778;51.142;3.732;2024-03-25T04:33:07;3.40;99.90
59923;DHT22;45778;51.142;3.732;2024-03-25T04:35:33;3.30;99.90
59923;DHT22;45778;51.142;3.732;2024-03-25T04:37:59;3.30;99.90
59923;DHT22;45778;51.142;3.732;2024-03-25T04:40:25;3.30;99.90
59923;DHT22;45778;51.142;3.732;2024-03-25T04:42:50;3.20;99.90
59923;DHT22;45778;51.142;3.732;2024-03-25T04:45:16;3.10;99.90
59923;DHT22;45778;51.142;3.732;2024-03-25T04:47:42;3.20;99.90
59923;DHT22;45778;51.142;3.732;2024-03-25T04:50:08;3.20;99.90
59923;DHT22;45778;51.142;3.732;2024-03-25T04:52:34;3.10;99.90
59923;DHT22;45778;51.142;3.732;2024-03-25T04:55:00;3.10;99.90
59923;DHT22;45778;51.142;3.732;2024-03-25T04:57:25;3.10;99.90
59923;DHT22;45778;51.142;3.732;2024-03-25T04:59:51;3.20;99.90
59923;DHT22;45778;51.142;3.732;2024-03-25T05:02:17;3.10;99.90
59923;DHT22;45778;51.142;3.732;2024-03-25T05:04:43;3.20;99.90
59923;DHT22;45778;51.142;3.732;2024-03-25T05:07:08;3.30;99.90
59923;DHT22;45778;51.142;3.732;2024-03-25T05:09:34;3.50;99.90
59923;DHT22;45778;51.142;3.732;2024-03-25T05:12:00;3.50;99.90
59923;DHT22;45778;51.142;3.732;2024-03-25T05:14:25;3.60;99.90
59923;DHT22;45778;51.142;3.732;2024-03-25T05:16:51;3.60;99.90
59923;DHT22;45778;51.142;3.732;2024-03-25T05:19:18;3.70;99.90
59923;DHT22;45778;51.142;3.732;2024-03-25T05:21:44;3.70;99.90
59923;DHT22;45778;51.142;3.732;2024-03-25T05:24:10;3.70;99.90
59923;DHT22;45778;51.142;3.732;2024-03-25T05:26:35;3.60;99.90
59923;DHT22;45778;51.142;3.732;2024-03-25T05:29:01;3.60;99.90
59923;DHT22;45778;51.142;3.732;2024-03-25T05:31:26;3.60;99.90
59923;DHT22;45778;51.142;3.732;2024-03-25T05:33:53;3.60;99.90
59923;DHT22;45778;51.142;3.732;2024-03-25T05:36:18;3.70;99.90
59923;DHT22;45778;51.142;3.732;2024-03-25T05:38:45;3.70;99.90
59923;DHT22;45778;51.142;3.732;2024-03-25T05:41:11;3.80;99.90
59923;DHT22;45778;51.142;3.732;2024-03-25T05:43:37;3.80;99.90
59923;DHT22;45778;51.142;3.732;2024-03-25T05:46:03;3.80;99.90
59923;DHT22;45778;51.142;3.732;2024-03-25T05:48:29;3.90;99.90
59923;DHT22;45778;51.142;3.732;2024-03-25T05:51:06;4.10;99.90
59923;DHT22;45778;51.142;3.732;2024-03-25T05:53:34;4.00;99.90
59923;DHT22;45778;51.142;3.732;2024-03-25T05:56:00;4.10;99.90
59923;DHT22;45778;51.142;3.732;2024-03-25T05:58:26;4.10;99.90
59923;DHT22;45778;51.142;3.732;2024-03-25T06:00:52;4.20;99.90
59923;DHT22;45778;51.142;3.732;2024-03-25T06:03:22;4.30;99.90
59923;DHT22;45778;51.142;3.732;2024-03-25T06:05:47;4.40;99.90
59923;DHT22;45778;51.142;3.732;2024-03-25T06:08:13;4.50;99.90
59923;DHT22;45778;51.142;3.732;2024-03-25T06:11:03;4.70;99.90
59923;DHT22;45778;51.142;3.732;2024-03-25T06:13:29;4.80;99.90
59923;DHT22;45778;51.142;3.732;2024-03-25T06:15:55;4.90;99.90
59923;DHT22;45778;51.142;3.732;2024-03-25T06:18:20;5.00;99.90
59923;DHT22;45778;51.142;3.732;2024-03-25T06:20:46;5.00;99.90
59923;DHT22;45778;51.142;3.732;2024-03-25T06:23:32;5.20;99.90
59923;DHT22;45778;51.142;3.732;2024-03-25T06:25:58;5.20;99.90
59923;DHT22;45778;51.142;3.732;2024-03-25T06:28:24;5.40;99.90
59923;DHT22;45778;51.142;3.732;2024-03-25T06:30:51;5.60;99.90
59923;DHT22;45778;51.142;3.732;2024-03-25T06:33:35;5.50;99.90
59923;DHT22;45778;51.142;3.732;2024-03-25T06:36:20;5.60;99.90
59923;DHT22;45778;51.142;3.732;2024-03-25T06:38:46;5.60;99.90
59923;DHT22;45778;51.142;3.732;2024-03-25T06:41:12;5.80;99.90
59923;DHT22;45778;51.142;3.732;2024-03-25T06:43:38;5.90;99.90
59923;DHT22;45778;51.142;3.732;2024-03-25T06:46:07;5.80;99.90
59923;DHT22;45778;51.142;3.732;2024-03-25T06:48:34;5.70;99.90
59923;DHT22;45778;51.142;3.732;2024-03-25T06:51:02;5.80;99.90
59923;DHT22;45778;51.142;3.732;2024-03-25T06:53:28;5.90;99.90
59923;DHT22;45778;51.142;3.732;2024-03-25T06:55:59;6.00;99.90
59923;DHT22;45778;51.142;3.732;2024-03-25T06:58:26;5.90;99.90
59923;DHT22;45778;51.142;3.732;2024-03-25T07:00:54;5.90;99.90
59923;DHT22;45778;51.142;3.732;2024-03-25T07:03:21;5.90;99.90
59923;DHT22;45778;51.142;3.732;2024-03-25T07:05:48;6.00;99.90
59923;DHT22;45778;51.142;3.732;2024-03-25T07:08:15;6.00;99.90
59923;DHT22;45778;51.142;3.732;2024-03-25T07:10:45;6.10;99.90
59923;DHT22;45778;51.142;3.732;2024-03-25T07:13:11;6.10;99.90
59923;DHT22;45778;51.142;3.732;2024-03-25T07:15:37;6.10;99.90
59923;DHT22;45778;51.142;3.732;2024-03-25T07:18:03;6.10;99.90
59923;DHT22;45778;51.142;3.732;2024-03-25T07:20:29;6.10;99.90
59923;DHT22;45778;51.142;3.732;2024-03-25T07:22:56;6.10;99.90
59923;DHT22;45778;51.142;3.732;2024-03-25T07:25:23;6.20;99.90
59923;DHT22;45778;51.142;3.732;2024-03-25T07:27:48;6.40;99.90
59923;DHT22;45778;51.142;3.732;2024-03-25T07:30:14;6.50;99.90
59923;DHT22;45778;51.142;3.732;2024-03-25T07:32:40;6.50;99.90
59923;DHT22;45778;51.142;3.732;2024-03-25T07:35:06;6.60;99.90
59923;DHT22;45778;51.142;3.732;2024-03-25T07:37:33;6.70;99.90
59923;DHT22;45778;51.142;3.732;2024-03-25T07:39:59;6.70;99.90
59923;DHT22;45778;51.142;3.732;2024-03-25T07:42:25;6.80;99.90
59923;DHT22;45778;51.142;3.732;2024-03-25T07:44:50;6.70;99.90
59923;DHT22;45778;51.142;3.732;2024-03-25T07:47:16;6.70;99.90
59923;DHT22;45778;51.142;3.732;2024-03-25T07:49:42;6.50;99.90
59923;DHT22;45778;51.142;3.732;2024-03-25T07:52:08;6.70;99.90
59923;DHT22;45778;51.142;3.732;2024-03-25T07:54:33;6.50;99.90
59923;DHT22;45778;51.142;3.732;2024-03-25T07:57:00;6.70;99.90
59923;DHT22;45778;51.142;3.732;2024-03-25T07:59:26;6.80;99.90
59923;DHT22;45778;51.142;3.732;2024-03-25T08:01:51;6.80;99.90
59923;DHT22;45778;51.142;3.732;2024-03-25T08:04:17;6.70;99.90
59923;DHT22;45778;51.142;3.732;2024-03-25T08:06:43;6.90;99.90
59923;DHT22;45778;51.142;3.732;2024-03-25T08:09:09;7.00;99.90
59923;DHT22;45778;51.142;3.732;2024-03-25T08:11:35;7.30;99.90
59923;DHT22;45778;51.142;3.732;2024-03-25T08:14:01;7.40;99.90
59923;DHT22;45778;51.142;3.732;2024-03-25T08:16:26;7.40;99.90
59923;DHT22;45778;51.142;3.732;2024-03-25T08:18:52;7.20;99.90
59923;DHT22;45778;51.142;3.732;2024-03-25T08:21:18;7.40;99.90
59923;DHT22;45778;51.142;3.732;2024-03-25T08:23:46;7.30;99.90
59923;DHT22;45778;51.142;3.732;2024-03-25T08:26:12;7.30;99.90
59923;DHT22;45778;51.142;3.732;2024-03-25T08:28:38;7.50;99.90
59923;DHT22;45778;51.142;3.732;2024-03-25T08:31:04;7.70;99.90
59923;DHT22;45778;51.142;3.732;2024-03-25T08:33:30;7.70;99.90
59923;DHT22;45778;51.142;3.732;2024-03-25T08:35:56;7.90;99.90
59923;DHT22;45778;51.142;3.732;2024-03-25T08:38:21;8.00;99.90
59923;DHT22;45778;51.142;3.732;2024-03-25T08:40:47;8.00;99.90
59923;DHT22;45778;51.142;3.732;2024-03-25T08:43:13;7.80;99.90
59923;DHT22;45778;51.142;3.732;2024-03-25T08:45:39;7.80;99.90
59923;DHT22;45778;51.142;3.732;2024-03-25T08:48:06;8.00;99.90
59923;DHT22;45778;51.142;3.732;2024-03-25T08:50:32;8.00;99.90
59923;DHT22;45778;51.142;3.732;2024-03-25T08:53:01;8.30;99.90
59923;DHT22;45778;51.142;3.732;2024-03-25T08:55:27;8.40;99.90
59923;DHT22;45778;51.142;3.732;2024-03-25T08:57:53;8.40;99.90
59923;DHT22;45778;51.142;3.732;2024-03-25T09:00:19;8.50;99.90
59923;DHT22;45778;51.142;3.732;2024-03-25T09:02:44;8.50;99.90
59923;DHT22;45778;51.142;3.732;2024-03-25T09:05:10;8.60;99.90
59923;DHT22;45778;51.142;3.732;2024-03-25T09:07:36;8.80;99.90
59923;DHT22;45778;51.142;3.732;2024-03-25T09:10:02;8.90;99.90
59923;DHT22;45778;51.142;3.732;2024-03-25T09:12:46;8.50;99.90
59923;DHT22;45778;51.142;3.732;2024-03-25T09:15:12;8.50;99.90
59923;DHT22;45778;51.142;3.732;2024-03-25T09:17:38;8.50;99.90
59923;DHT22;45778;51.142;3.732;2024-03-25T09:20:04;8.50;99.90
59923;DHT22;45778;51.142;3.732;2024-03-25T09:22:42;8.70;99.90
59923;DHT22;45778;51.142;3.732;2024-03-25T09:25:08;8.70;99.90
59923;DHT22;45778;51.142;3.732;2024-03-25T09:27:33;8.70;99.90
59923;DHT22;45778;51.142;3.732;2024-03-25T09:29:59;8.90;99.90
59923;DHT22;45778;51.142;3.732;2024-03-25T09:32:25;9.10;99.90
59923;DHT22;45778;51.142;3.732;2024-03-25T09:34:51;9.40;99.90
59923;DHT22;45778;51.142;3.732;2024-03-25T09:37:17;9.90;99.90
59923;DHT22;45778;51.142;3.732;2024-03-25T09:39:43;9.90;99.90
59923;DHT22;45778;51.142;3.732;2024-03-25T09:42:14;10.00;99.90
59923;DHT22;45778;51.142;3.732;2024-03-25T09:44:40;10.00;99.90
59923;DHT22;45778;51.142;3.732;2024-03-25T09:47:07;9.90;99.90
59923;DHT22;45778;51.142;3.732;2024-03-25T09:49:35;9.90;99.90
59923;DHT22;45778;51.142;3.732;2024-03-25T09:52:02;10.00;99.90
59923;DHT22;45778;51.142;3.732;2024-03-25T09:54:28;10.30;99.90
59923;DHT22;45778;51.142;3.732;2024-03-25T09:56:53;10.40;99.90
59923;DHT22;45778;51.142;3.732;2024-03-25T09:59:20;10.40;99.90
59923;DHT22;45778;51.142;3.732;2024-03-25T10:01:45;10.40;99.90
59923;DHT22;45778;51.142;3.732;2024-03-25T10:04:11;10.50;99.90
59923;DHT22;45778;51.142;3.732;2024-03-25T10:06:39;10.50;99.90
59923;DHT22;45778;51.142;3.732;2024-03-25T10:09:05;10.50;99.90
59923;DHT22;45778;51.142;3.732;2024-03-25T10:11:32;10.50;99.90
59923;DHT22;45778;51.142;3.732;2024-03-25T10:14:01;10.40;99.90
59923;DHT22;45778;51.142;3.732;2024-03-25T10:16:27;10.40;99.90
59923;DHT22;45778;51.142;3.732;2024-03-25T10:18:53;10.60;99.90
59923;DHT22;45778;51.142;3.732;2024-03-25T10:21:22;10.90;99.90
59923;DHT22;45778;51.142;3.732;2024-03-25T10:23:48;11.00;99.90
59923;DHT22;45778;51.142;3.732;2024-03-25T10:26:31;10.80;99.90
59923;DHT22;45778;51.142;3.732;2024-03-25T10:29:06;10.70;99.90
59923;DHT22;45778;51.142;3.732;2024-03-25T10:31:33;10.80;99.90
59923;DHT22;45778;51.142;3.732;2024-03-25T10:33:58;11.30;99.90
59923;DHT22;45778;51.142;3.732;2024-03-25T10:36:24;11.50;99.90
59923;DHT22;45778;51.142;3.732;2024-03-25T10:38:55;11.40;99.90
59923;DHT22;45778;51.142;3.732;2024-03-25T10:41:21;11.60;99.90
59923;DHT22;45778;51.142;3.732;2024-03-25T10:43:48;11.80;99.90
59923;DHT22;45778;51.142;3.732;2024-03-25T10:46:20;11.60;99.90
59923;DHT22;45778;51.142;3.732;2024-03-25T10:49:27;11.50;99.90
59923;DHT22;45778;51.142;3.732;2024-03-25T10:51:57;11.70;99.90
59923;DHT22;45778;51.142;3.732;2024-03-25T10:54:24;11.90;99.90
59923;DHT22;45778;51.142;3.732;2024-03-25T10:56:50;11.90;99.90
59923;DHT22;45778;51.142;3.732;2024-03-25T10:59:18;11.80;99.90
59923;DHT22;45778;51.142;3.732;2024-03-25T11:01:46;11.80;99.90
59923;DHT22;45778;51.142;3.732;2024-03-25T11:04:12;11.40;99.90
59923;DHT22;45778;51.142;3.732;2024-03-25T11:06:38;11.50;99.90
59923;DHT22;45778;51.142;3.732;2024-03-25T11:09:03;11.60;99.90
59923;DHT22;45778;51.142;3.732;2024-03-25T11:11:33;11.80;99.90
59923;DHT22;45778;51.142;3.732;2024-03-25T11:14:03;11.80;99.90
59923;DHT22;45778;51.142;3.732;2024-03-25T11:16:30;12.00;99.90
59923;DHT22;45778;51.142;3.732;2024-03-25T11:19:00;12.10;99.90
59923;DHT22;45778;51.142;3.732;2024-03-25T11:21:25;12.10;99.90
59923;DHT22;45778;51.142;3.732;2024-03-25T11:23:51;12.20;99.90
59923;DHT22;45778;51.142;3.732;2024-03-25T11:26:24;12.30;99.90
59923;DHT22;45778;51.142;3.732;2024-03-25T11:28:49;12.40;99.90
59923;DHT22;45778;51.142;3.732;2024-03-25T11:31:16;12.80;99.90
59923;DHT22;45778;51.142;3.732;2024-03-25T11:33:44;12.90;99.90
59923;DHT22;45778;51.142;3.732;2024-03-25T11:36:10;12.50;99.90
59923;DHT22;45778;51.142;3.732;2024-03-25T11:38:37;12.20;99.90
59923;DHT22;45778;51.142;3.732;2024-03-25T11:41:06;12.50;99.90
59923;DHT22;45778;51.142;3.732;2024-03-25T11:43:32;12.90;99.90
59923;DHT22;45778;51.142;3.732;2024-03-25T11:45:58;12.50;99.90
59923;DHT22;45778;51.142;3.732;2024-03-25T11:48:24;12.60;99.90
59923;DHT22;45778;51.142;3.732;2024-03-25T11:50:50;12.90;99.90
59923;DHT22;45778;51.142;3.732;2024-03-25T11:53:15;12.80;99.90
59923;DHT22;45778;51.142;3.732;2024-03-25T11:55:46;12.80;99.90
59923;DHT22;45778;51.142;3.732;2024-03-25T11:58:12;12.60;99.90
59923;DHT22;45778;51.142;3.732;2024-03-25T12:00:47;12.70;99.90
59923;DHT22;45778;51.142;3.732;2024-03-25T12:03:17;13.20;99.90
59923;DHT22;45778;51.142;3.732;2024-03-25T12:05:46;13.70;99.90
59923;DHT22;45778;51.142;3.732;2024-03-25T12:08:12;14.40;98.30
59923;DHT22;45778;51.142;3.732;2024-03-25T12:10:38;14.40;99.10
59923;DHT22;45778;51.142;3.732;2024-03-25T12:13:23;13.70;99.00
59923;DHT22;45778;51.142;3.732;2024-03-25T12:15:51;13.30;99.60
59923;DHT22;45778;51.142;3.732;2024-03-25T12:18:17;13.30;99.90
59923;DHT22;45778;51.142;3.732;2024-03-25T12:20:45;13.80;99.90
59923;DHT22;45778;51.142;3.732;2024-03-25T12:23:11;14.80;97.80
59923;DHT22;45778;51.142;3.732;2024-03-25T12:25:37;15.30;98.00
59923;DHT22;45778;51.142;3.732;2024-03-25T12:28:08;16.00;97.10
59923;DHT22;45778;51.142;3.732;2024-03-25T12:30:48;16.00;95.80
59923;DHT22;45778;51.142;3.732;2024-03-25T12:33:14;15.10;96.30
59923;DHT22;45778;51.142;3.732;2024-03-25T12:35:39;15.40;95.90
59923;DHT22;45778;51.142;3.732;2024-03-25T12:38:05;16.30;95.00
59923;DHT22;45778;51.142;3.732;2024-03-25T12:40:31;16.60;94.00
59923;DHT22;45778;51.142;3.732;2024-03-25T12:42:57;18.30;93.10
59923;DHT22;45778;51.142;3.732;2024-03-25T12:45:24;18.70;89.50
59923;DHT22;45778;51.142;3.732;2024-03-25T12:47:50;17.10;90.30
59923;DHT22;45778;51.142;3.732;2024-03-25T12:50:16;16.30;91.60
59923;DHT22;45778;51.142;3.732;2024-03-25T12:52:42;16.20;92.10
59923;DHT22;45778;51.142;3.732;2024-03-25T12:55:08;16.90;91.90
59923;DHT22;45778;51.142;3.732;2024-03-25T12:57:35;18.20;90.50
59923;DHT22;45778;51.142;3.732;2024-03-25T13:00:01;18.40;90.20
59923;DHT22;45778;51.142;3.732;2024-03-25T13:02:26;18.30;90.10
59923;DHT22;45778;51.142;3.732;2024-03-25T13:04:52;19.30;86.50
59923;DHT22;45778;51.142;3.732;2024-03-25T13:07:19;18.60;84.30
59923;DHT22;45778;51.142;3.732;2024-03-25T13:09:45;18.40;84.20
59923;DHT22;45778;51.142;3.732;2024-03-25T13:12:11;18.50;84.00
59923;DHT22;45778;51.142;3.732;2024-03-25T13:14:37;19.20;83.60
59923;DHT22;45778;51.142;3.732;2024-03-25T13:17:02;18.70;82.20
59923;DHT22;45778;51.142;3.732;2024-03-25T13:19:31;18.40;83.70
59923;DHT22;45778;51.142;3.732;2024-03-25T13:21:56;19.80;80.40
59923;DHT22;45778;51.142;3.732;2024-03-25T13:24:22;19.20;80.60
59923;DHT22;45778;51.142;3.732;2024-03-25T13:26:48;20.30;79.00
59923;DHT22;45778;51.142;3.732;2024-03-25T13:29:13;21.20;75.60
59923;DHT22;45778;51.142;3.732;2024-03-25T13:31:39;20.40;75.70
59923;DHT22;45778;51.142;3.732;2024-03-25T13:34:05;19.90;78.80
59923;DHT22;45778;51.142;3.732;2024-03-25T13:36:31;18.80;77.80
59923;DHT22;45778;51.142;3.732;2024-03-25T13:38:57;18.80;79.70
59923;DHT22;45778;51.142;3.732;2024-03-25T13:41:24;19.10;78.80
59923;DHT22;45778;51.142;3.732;2024-03-25T13:43:50;18.50;80.60
59923;DHT22;45778;51.142;3.732;2024-03-25T13:46:15;18.30;80.20
59923;DHT22;45778;51.142;3.732;2024-03-25T13:48:43;17.90;77.60
59923;DHT22;45778;51.142;3.732;2024-03-25T13:51:08;17.60;79.70
59923;DHT22;45778;51.142;3.732;2024-03-25T13:53:34;17.60;82.00
59923;DHT22;45778;51.142;3.732;2024-03-25T13:56:00;16.80;81.30
59923;DHT22;45778;51.142;3.732;2024-03-25T13:58:26;16.50;83.30
59923;DHT22;45778;51.142;3.732;2024-03-25T14:00:52;15.80;83.40
59923;DHT22;45778;51.142;3.732;2024-03-25T14:03:17;16.70;80.50
59923;DHT22;45778;51.142;3.732;2024-03-25T14:05:44;16.60;80.20
59923;DHT22;45778;51.142;3.732;2024-03-25T14:08:10;16.50;83.30
59923;DHT22;45778;51.142;3.732;2024-03-25T14:10:36;17.60;79.80
59923;DHT22;45778;51.142;3.732;2024-03-25T14:13:02;17.00;77.30
59923;DHT22;45778;51.142;3.732;2024-03-25T14:15:29;17.20;78.70
59923;DHT22;45778;51.142;3.732;2024-03-25T14:17:54;16.60;81.20
59923;DHT22;45778;51.142;3.732;2024-03-25T14:20:20;17.20;78.70
59923;DHT22;45778;51.142;3.732;2024-03-25T14:22:46;18.10;77.40
59923;DHT22;45778;51.142;3.732;2024-03-25T14:25:11;18.40;77.60
59923;DHT22;45778;51.142;3.732;2024-03-25T14:27:37;18.50;76.70
59923;DHT22;45778;51.142;3.732;2024-03-25T14:30:03;18.50;75.30
59923;DHT22;45778;51.142;3.732;2024-03-25T14:32:28;18.90;74.00
59923;DHT22;45778;51.142;3.732;2024-03-25T14:34:54;18.80;75.10
59923;DHT22;45778;51.142;3.732;2024-03-25T14:37:21;18.40;75.50
59923;DHT22;45778;51.142;3.732;2024-03-25T14:39:46;17.80;75.30
59923;DHT22;45778;51.142;3.732;2024-03-25T14:42:12;17.90;77.40
59923;DHT22;45778;51.142;3.732;2024-03-25T14:44:38;19.10;76.20
59923;DHT22;45778;51.142;3.732;2024-03-25T14:47:06;19.10;75.10
59923;DHT22;45778;51.142;3.732;2024-03-25T14:49:32;19.80;74.50
59923;DHT22;45778;51.142;3.732;2024-03-25T14:51:58;19.90;72.90
59923;DHT22;45778;51.142;3.732;2024-03-25T14:54:23;19.50;72.40
59923;DHT22;45778;51.142;3.732;2024-03-25T14:56:57;18.60;73.40
59923;DHT22;45778;51.142;3.732;2024-03-25T14:59:23;17.90;75.50
59923;DHT22;45778;51.142;3.732;2024-03-25T15:01:49;18.70;75.10
59923;DHT22;45778;51.142;3.732;2024-03-25T15:04:15;18.40;73.80
59923;DHT22;45778;51.142;3.732;2024-03-25T15:06:41;19.10;75.00
59923;DHT22;45778;51.142;3.732;2024-03-25T15:09:06;19.60;72.50
59923;DHT22;45778;51.142;3.732;2024-03-25T15:11:32;20.30;71.90
59923;DHT22;45778;51.142;3.732;2024-03-25T15:13:57;19.30;71.20
59923;DHT22;45778;51.142;3.732;2024-03-25T15:16:23;19.10;72.20
59923;DHT22;45778;51.142;3.732;2024-03-25T15:18:50;18.90;71.80
59923;DHT22;45778;51.142;3.732;2024-03-25T15:21:16;18.00;73.20
59923;DHT22;45778;51.142;3.732;2024-03-25T15:23:42;17.90;74.50
59923;DHT22;45778;51.142;3.732;2024-03-25T15:26:07;18.00;75.50
59923;DHT22;45778;51.142;3.732;2024-03-25T15:28:33;18.10;75.00
59923;DHT22;45778;51.142;3.732;2024-03-25T15:30:59;18.80;73.90
59923;DHT22;45778;51.142;3.732;2024-03-25T15:33:25;18.60;71.40
59923;DHT22;45778;51.142;3.732;2024-03-25T15:35:51;17.80;73.40